Time;durP1;ratioP1;P1;durP2;ratioP2;P2;SDS_P1;SDS_P2;PMS_P1;PMS_P2;Temp;Humidity;BMP_temperature;BMP_pressure;BME280_temperature;BME280_humidity;BME280_pressure;Samples;Min_cycle;Max_cycle;Signal;HPM_P1;HPM_P2
2023/10/31 00:01:49;;;;;;;;;;;;;;;9.05;100.00;99719.06;5074366;28;19939;-78
2023/10/31 00:04:14;;;;;;;;;;;;;;;9.00;100.00;99726.19;5084867;28;19927;-78
2023/10/31 00:06:39;;;;;;;;;;;;;;;8.95;100.00;99728.09;5086143;28;19956;-78
2023/10/31 00:09:04;;;;;;;;;;;;;;;8.93;100.00;99735.09;5080814;28;20283;-78
2023/10/31 00:11:29;;;;;;;;;;;;;;;8.91;100.00;99729.09;5087705;28;19921;-78
2023/10/31 00:13:55;;;;;;;;;;;;;;;8.91;100.00;99736.91;5081852;28;19916;-78
2023/10/31 00:16:20;;;;;;;;;;;;;;;8.93;100.00;99739.44;5089148;28;20378;-78
2023/10/31 00:18:45;;;;;;;;;;;;;;;8.95;100.00;99748.03;5080334;28;20435;-78
2023/10/31 00:21:10;;;;;;;;;;;;;;;8.98;100.00;99743.59;5087843;28;19916;-78
2023/10/31 00:23:42;;;;;;;;;;;;;;;9.00;100.00;99741.78;5076835;28;19920;-78
2023/10/31 00:26:07;;;;;;;;;;;;;;;8.97;100.00;99744.50;5078515;28;20323;-78
2023/10/31 00:28:32;;;;;;;;;;;;;;;8.98;100.00;99742.72;5088046;28;19946;-78
2023/10/31 00:30:58;;;;;;;;;;;;;;;9.01;100.00;99745.22;5081726;28;19920;-78
2023/10/31 00:33:23;;;;;;;;;;;;;;;9.01;100.00;99742.63;5088634;28;20007;-78
2023/10/31 00:35:48;;;;;;;;;;;;;;;9.00;100.00;99747.00;5082390;28;20363;-77
2023/10/31 00:38:13;;;;;;;;;;;;;;;9.02;100.00;99752.13;5082385;28;19925;-78
2023/10/31 00:40:38;;;;;;;;;;;;;;;9.02;100.00;99750.38;5079498;28;19920;-77
2023/10/31 00:43:04;;;;;;;;;;;;;;;9.04;100.00;99752.94;5078483;28;19921;-78
2023/10/31 00:45:29;;;;;;;;;;;;;;;9.04;100.00;99758.97;5085886;28;19986;-78
2023/10/31 00:47:54;;;;;;;;;;;;;;;9.04;100.00;99752.94;5078779;28;19924;-78
2023/10/31 00:50:19;;;;;;;;;;;;;;;9.06;100.00;99761.53;5076552;28;19928;-77
2023/10/31 00:52:44;;;;;;;;;;;;;;;9.09;100.00;99769.19;5076028;28;20003;-78
2023/10/31 00:55:09;;;;;;;;;;;;;;;9.10;100.00;99761.38;5071893;28;19930;-78
2023/10/31 00:57:35;;;;;;;;;;;;;;;9.10;100.00;99773.53;5076104;28;19920;-77
2023/10/31 01:00:00;;;;;;;;;;;;;;;9.11;100.00;99767.41;5075898;28;19962;-77
2023/10/31 01:02:25;;;;;;;;;;;;;;;9.12;100.00;99772.56;5083916;28;19920;-78
2023/10/31 01:04:50;;;;;;;;;;;;;;;9.12;100.00;99771.69;5083952;28;20364;-77
2023/10/31 01:07:17;;;;;;;;;;;;;;;9.10;100.00;99779.56;5083296;28;20388;-77
2023/10/31 01:09:42;;;;;;;;;;;;;;;9.10;100.00;99783.91;5083859;28;19924;-77
2023/10/31 01:12:10;;;;;;;;;;;;;;;9.10;100.00;99776.97;5073683;28;20284;-78
2023/10/31 01:14:35;;;;;;;;;;;;;;;9.13;100.00;99796.81;5069114;28;19920;-77
2023/10/31 01:17:00;;;;;;;;;;;;;;;9.14;100.00;99790.72;5083797;28;19974;-77
2023/10/31 01:19:25;;;;;;;;;;;;;;;9.16;100.00;99785.47;5081705;28;19920;-77
2023/10/31 01:21:50;;;;;;;;;;;;;;;9.15;100.00;99792.41;5085772;28;19928;-78
2023/10/31 01:24:15;;;;;;;;;;;;;;;9.14;100.00;99788.94;5081403;28;19927;-77
2023/10/31 01:26:41;;;;;;;;;;;;;;;9.13;100.00;99795.06;5074867;28;19925;-78
2023/10/31 01:29:06;;;;;;;;;;;;;;;9.13;100.00;99791.63;5052758;28;19944;-77
2023/10/31 01:31:32;;;;;;;;;;;;;;;9.11;100.00;99791.66;5069389;28;19920;-77
2023/10/31 01:33:57;;;;;;;;;;;;;;;9.09;100.00;99788.28;5076768;28;19923;-77
2023/10/31 01:36:26;;;;;;;;;;;;;;;9.07;100.00;99791.81;5075499;28;20316;-78
2023/10/31 01:38:51;;;;;;;;;;;;;;;9.06;100.00;99800.53;5082101;28;20391;-78
2023/10/31 01:41:17;;;;;;;;;;;;;;;9.05;100.00;99797.06;5084725;28;19926;-77
2023/10/31 01:43:42;;;;;;;;;;;;;;;9.03;100.00;99796.28;5081075;28;19924;-78
2023/10/31 01:46:07;;;;;;;;;;;;;;;9.01;100.00;99792.88;5088314;28;19921;-78
2023/10/31 01:48:33;;;;;;;;;;;;;;;9.02;100.00;99799.75;5070345;28;20141;-77
2023/10/31 01:50:59;;;;;;;;;;;;;;;9.02;100.00;99791.13;5081642;28;19920;-78
2023/10/31 01:53:25;;;;;;;;;;;;;;;9.02;100.00;99794.56;5080717;28;20007;-78
2023/10/31 01:55:51;;;;;;;;;;;;;;;9.01;100.00;99803.28;5086842;28;19955;-77
2023/10/31 01:58:17;;;;;;;;;;;;;;;9.02;100.00;99785.91;5079773;28;20043;-77
2023/10/31 02:00:43;;;;;;;;;;;;;;;8.98;100.00;99786.94;5085744;28;19955;-77
2023/10/31 02:03:08;;;;;;;;;;;;;;;8.96;100.00;99797.41;5062844;28;19964;-77
2023/10/31 02:05:34;;;;;;;;;;;;;;;8.96;100.00;99801.72;5076683;28;20023;-77
2023/10/31 02:07:59;;;;;;;;;;;;;;;8.97;100.00;99808.63;5078814;28;20602;-77
2023/10/31 02:10:24;;;;;;;;;;;;;;;8.97;100.00;99808.63;5081916;28;20354;-77
2023/10/31 02:12:50;;;;;;;;;;;;;;;8.98;100.00;99805.13;5081756;28;20435;-78
2023/10/31 02:15:15;;;;;;;;;;;;;;;9.00;100.00;99803.34;5082693;28;19920;-77
2023/10/31 02:17:40;;;;;;;;;;;;;;;9.02;100.00;99804.97;5083429;28;19920;-77
2023/10/31 02:20:06;;;;;;;;;;;;;;;9.03;100.00;99804.06;5075243;28;19963;-77
2023/10/31 02:22:31;;;;;;;;;;;;;;;9.03;100.00;99801.47;5082382;28;19920;-77
2023/10/31 02:24:56;;;;;;;;;;;;;;;9.04;100.00;99795.38;5083752;28;19916;-77
2023/10/31 02:27:21;;;;;;;;;;;;;;;9.05;100.00;99802.25;5080289;28;20007;-77
2023/10/31 02:29:46;;;;;;;;;;;;;;;9.07;100.00;99795.25;5083151;28;19963;-77
2023/10/31 02:32:12;;;;;;;;;;;;;;;9.10;100.00;99795.16;5085068;28;19928;-77
2023/10/31 02:34:37;;;;;;;;;;;;;;;9.13;100.00;99799.41;5080290;28;19924;-77
2023/10/31 02:37:02;;;;;;;;;;;;;;;9.13;100.00;99802.88;5076477;28;20014;-77
2023/10/31 02:39:27;;;;;;;;;;;;;;;9.11;100.00;99802.06;5081973;28;19962;-77
2023/10/31 02:41:52;;;;;;;;;;;;;;;9.08;100.00;99802.16;5084752;28;19924;-77
2023/10/31 02:44:18;;;;;;;;;;;;;;;9.06;100.00;99816.97;5088565;28;20391;-77
2023/10/31 02:46:43;;;;;;;;;;;;;;;9.04;100.00;99813.56;5083297;28;20016;-77
2023/10/31 02:49:09;;;;;;;;;;;;;;;9.02;100.00;99817.13;5087127;28;19982;-77
2023/10/31 02:51:35;;;;;;;;;;;;;;;8.99;100.00;99820.69;5082635;28;19998;-77
2023/10/31 02:54:00;;;;;;;;;;;;;;;8.95;100.00;99826.88;5079539;28;19932;-77
2023/10/31 02:56:25;;;;;;;;;;;;;;;8.94;100.00;99819.97;5080880;28;19954;-77
2023/10/31 02:58:50;;;;;;;;;;;;;;;8.94;100.00;99822.56;5085108;28;20428;-78
2023/10/31 03:01:17;;;;;;;;;;;;;;;8.95;100.00;99826.88;5083659;28;19920;-78
2023/10/31 03:03:43;;;;;;;;;;;;;;;8.98;100.00;99824.16;5086344;28;19916;-78
2023/10/31 03:06:08;;;;;;;;;;;;;;;8.99;100.00;99828.50;5078939;28;20261;-77
2023/10/31 03:08:33;;;;;;;;;;;;;;;9.00;100.00;99831.94;5078666;28;19965;-77
2023/10/31 03:10:58;;;;;;;;;;;;;;;9.00;100.00;99835.38;5079168;28;19943;-77
2023/10/31 03:13:23;;;;;;;;;;;;;;;8.99;100.00;99831.09;5086706;28;19932;-77
2023/10/31 03:15:49;;;;;;;;;;;;;;;8.98;100.00;99838.91;5085715;28;19926;-77
2023/10/31 03:18:14;;;;;;;;;;;;;;;8.98;100.00;99847.56;5075209;28;19947;-77
2023/10/31 03:20:40;;;;;;;;;;;;;;;8.98;100.00;99852.75;5070912;28;19920;-77
2023/10/31 03:23:05;;;;;;;;;;;;;;;8.99;100.00;99861.41;5083783;28;19916;-77
2023/10/31 03:25:30;;;;;;;;;;;;;;;9.00;100.00;99868.31;5070894;28;19931;-78
2023/10/31 03:27:55;;;;;;;;;;;;;;;9.01;100.00;99864.81;5086000;28;19974;-77
2023/10/31 03:30:20;;;;;;;;;;;;;;;9.02;100.00;99869.94;5090362;28;19916;-78
2023/10/31 03:32:45;;;;;;;;;;;;;;;9.04;100.00;99877.72;5082274;28;19925;-77
2023/10/31 03:35:11;;;;;;;;;;;;;;;9.04;100.00;99868.16;5062692;28;19920;-77
2023/10/31 03:37:39;;;;;;;;;;;;;;;9.05;100.00;99875.06;5067250;28;19920;-77
2023/10/31 03:40:05;;;;;;;;;;;;;;;9.05;100.00;99880.25;5083424;28;19949;-77
2023/10/31 03:42:30;;;;;;;;;;;;;;;9.03;100.00;99874.28;5080031;28;20014;-78
2023/10/31 03:44:55;;;;;;;;;;;;;;;9.04;100.00;99875.97;5086941;28;19935;-77
2023/10/31 03:47:20;;;;;;;;;;;;;;;9.06;100.00;99881.97;5083319;28;19926;-77
2023/10/31 03:49:46;;;;;;;;;;;;;;;9.08;100.00;99890.56;5082534;28;20409;-77
2023/10/31 03:52:11;;;;;;;;;;;;;;;9.09;100.00;99892.28;5079641;28;19947;-77
2023/10/31 03:54:36;;;;;;;;;;;;;;;9.10;100.00;99893.13;5085066;28;19931;-77
2023/10/31 03:57:01;;;;;;;;;;;;;;;9.08;100.00;99900.97;5081984;28;19916;-77
2023/10/31 03:59:26;;;;;;;;;;;;;;;9.08;100.00;99906.16;5084991;28;19959;-77
2023/10/31 04:01:51;;;;;;;;;;;;;;;9.06;100.00;99907.97;5074112;28;19916;-77
2023/10/31 04:04:17;;;;;;;;;;;;;;;9.06;100.00;99901.94;5084967;28;19943;-77
2023/10/31 04:06:43;;;;;;;;;;;;;;;9.04;100.00;99914.13;5084297;28;19921;-77
2023/10/31 04:09:08;;;;;;;;;;;;;;;9.05;100.00;99916.66;5082172;28;20011;-77
2023/10/31 04:11:34;;;;;;;;;;;;;;;9.06;100.00;99917.53;5077669;28;20347;-77
2023/10/31 04:13:59;;;;;;;;;;;;;;;9.06;100.00;99913.19;5083657;28;19955;-77
2023/10/31 04:16:24;;;;;;;;;;;;;;;9.06;100.00;99915.78;5082843;28;19981;-77
2023/10/31 04:18:49;;;;;;;;;;;;;;;9.06;100.00;99920.13;5080946;28;19925;-77
2023/10/31 04:21:14;;;;;;;;;;;;;;;9.01;100.00;99912.47;5090019;28;19933;-77
2023/10/31 04:23:40;;;;;;;;;;;;;;;8.99;100.00;99923.78;5081905;28;19921;-77
2023/10/31 04:26:05;;;;;;;;;;;;;;;9.00;100.00;99922.91;5089510;28;20330;-77
2023/10/31 04:28:30;;;;;;;;;;;;;;;8.98;100.00;99935.09;5082077;28;19943;-77
2023/10/31 04:30:55;;;;;;;;;;;;;;;8.96;100.00;99934.28;5087358;28;19924;-77
2023/10/31 04:33:21;;;;;;;;;;;;;;;8.97;100.00;99939.47;5086509;28;20002;-77
2023/10/31 04:35:46;;;;;;;;;;;;;;;8.97;100.00;99938.63;5077478;28;19921;-77
2023/10/31 04:38:11;;;;;;;;;;;;;;;8.99;100.00;99942.00;5078454;28;19916;-78
2023/10/31 04:40:36;;;;;;;;;;;;;;;8.99;100.00;99955.88;5088326;28;19924;-77
2023/10/31 04:43:02;;;;;;;;;;;;;;;9.00;100.00;99957.56;5081726;28;19917;-77
2023/10/31 04:45:27;;;;;;;;;;;;;;;9.01;100.00;99953.22;5086870;28;20364;-77
2023/10/31 04:47:52;;;;;;;;;;;;;;;9.00;100.00;99962.75;5084182;28;19936;-78
2023/10/31 04:50:17;;;;;;;;;;;;;;;9.03;100.00;99970.47;5081398;28;19916;-78
2023/10/31 04:52:42;;;;;;;;;;;;;;;9.01;100.00;99966.22;5079308;28;19936;-78
2023/10/31 04:55:08;;;;;;;;;;;;;;;8.99;100.00;99971.47;5076574;28;19947;-78
2023/10/31 04:57:33;;;;;;;;;;;;;;;9.01;100.00;99964.44;5077203;28;19932;-78
2023/10/31 04:59:59;;;;;;;;;;;;;;;9.03;100.00;99980.88;5084289;28;19924;-78
2023/10/31 05:02:24;;;;;;;;;;;;;;;9.05;100.00;99976.44;5084785;28;19920;-78
2023/10/31 05:04:52;;;;;;;;;;;;;;;9.08;100.00;99970.31;5075465;28;19927;-78
2023/10/31 05:07:18;;;;;;;;;;;;;;;9.08;100.00;99978.97;5075426;28;19928;-78
2023/10/31 05:09:43;;;;;;;;;;;;;;;9.08;100.00;99976.34;5082382;28;19916;-78
2023/10/31 05:12:08;;;;;;;;;;;;;;;9.09;100.00;99985.00;5084419;28;19930;-78
2023/10/31 05:14:33;;;;;;;;;;;;;;;9.08;100.00;99981.56;5077628;28;19917;-78
2023/10/31 05:16:58;;;;;;;;;;;;;;;9.05;100.00;99979.06;5081932;28;19932;-78
2023/10/31 05:19:24;;;;;;;;;;;;;;;9.01;100.00;99982.66;5081413;28;19927;-78
2023/10/31 05:21:49;;;;;;;;;;;;;;;8.97;100.00;99981.06;5083926;28;19959;-78
2023/10/31 05:24:14;;;;;;;;;;;;;;;8.94;100.00;99978.53;5071070;28;20011;-78
2023/10/31 05:26:40;;;;;;;;;;;;;;;8.96;100.00;99979.38;5087357;28;19926;-78
2023/10/31 05:29:05;;;;;;;;;;;;;;;8.95;100.00;99976.78;5078176;28;19959;-78
2023/10/31 05:31:30;;;;;;;;;;;;;;;8.93;100.00;99969.06;5089358;28;20013;-78
2023/10/31 05:33:55;;;;;;;;;;;;;;;8.92;100.00;99977.72;5080708;28;20023;-78
2023/10/31 05:36:22;;;;;;;;;;;;;;;8.93;100.00;99982.06;5077483;28;20015;-78
2023/10/31 05:38:47;;;;;;;;;;;;;;;8.91;100.00;99981.25;5083930;28;19928;-78
2023/10/31 05:41:13;;;;;;;;;;;;;;;8.91;100.00;99983.84;5081855;28;19966;-78
2023/10/31 05:43:39;;;;;;;;;;;;;;;8.90;100.00;99985.59;5083268;28;19965;-78
2023/10/31 05:46:04;;;;;;;;;;;;;;;8.89;100.00;99994.28;5076649;28;20353;-78
2023/10/31 05:48:30;;;;;;;;;;;;;;;8.88;100.00;99997.75;5081818;28;19920;-78
2023/10/31 05:50:55;;;;;;;;;;;;;;;8.86;100.00;100003.91;5084588;28;19920;-78
2023/10/31 05:53:20;;;;;;;;;;;;;;;8.82;100.00;100004.91;5080733;28;19927;-78
2023/10/31 05:55:46;;;;;;;;;;;;;;;8.78;100.00;100009.34;5088048;28;20080;-78
2023/10/31 05:58:12;;;;;;;;;;;;;;;8.74;100.00;100025.06;5080266;28;19920;-78
2023/10/31 06:00:37;;;;;;;;;;;;;;;8.68;100.00;100028.69;5079736;28;19920;-78
2023/10/31 06:03:02;;;;;;;;;;;;;;;8.62;100.00;100021.91;5079784;28;19920;-77
2023/10/31 06:05:27;;;;;;;;;;;;;;;8.59;100.00;100027.19;5086796;28;19927;-77
2023/10/31 06:07:53;;;;;;;;;;;;;;;8.54;100.00;100034.28;5082060;28;19932;-77
2023/10/31 06:10:18;;;;;;;;;;;;;;;8.49;100.00;100032.69;5084386;28;19920;-77
2023/10/31 06:12:43;;;;;;;;;;;;;;;8.41;100.00;100044.16;5083654;28;19921;-78
2023/10/31 06:15:09;;;;;;;;;;;;;;;8.34;100.00;100045.19;5081817;28;20330;-77
2023/10/31 06:17:34;;;;;;;;;;;;;;;8.28;100.00;100047.09;5088356;28;19975;-77
2023/10/31 06:19:59;;;;;;;;;;;;;;;8.25;100.00;100044.59;5085195;28;19927;-77
2023/10/31 06:22:26;;;;;;;;;;;;;;;8.21;100.00;100049.84;5087477;28;19942;-77
2023/10/31 06:24:51;;;;;;;;;;;;;;;8.19;100.00;100061.16;5086818;28;19920;-77
2023/10/31 06:27:16;;;;;;;;;;;;;;;8.16;100.00;100059.50;5087046;28;19920;-77
2023/10/31 06:29:41;;;;;;;;;;;;;;;8.18;100.00;100065.50;5083662;28;20386;-77
2023/10/31 06:32:06;;;;;;;;;;;;;;;8.20;100.00;100070.66;5080328;28;19924;-77
2023/10/31 06:34:31;;;;;;;;;;;;;;;8.25;100.00;100068.81;5088569;28;19920;-77
2023/10/31 06:36:57;;;;;;;;;;;;;;;8.27;100.00;100072.19;5079056;28;19920;-77
2023/10/31 06:39:22;;;;;;;;;;;;;;;8.33;100.00;100072.03;5080445;28;19932;-77
2023/10/31 06:41:48;;;;;;;;;;;;;;;8.39;100.00;100073.66;5085513;28;20053;-77
2023/10/31 06:44:13;;;;;;;;;;;;;;;8.45;100.00;100070.91;5081301;28;20364;-77
2023/10/31 06:46:38;;;;;;;;;;;;;;;8.52;100.00;100071.59;5087207;28;19928;-77
2023/10/31 06:49:03;;;;;;;;;;;;;;;8.58;100.00;100080.06;5087118;28;19920;-77
2023/10/31 06:51:28;;;;;;;;;;;;;;;8.63;100.00;100078.22;5090561;28;19924;-78
2023/10/31 06:53:54;;;;;;;;;;;;;;;8.67;100.00;100085.00;5086367;28;19920;-77
2023/10/31 06:56:19;;;;;;;;;;;;;;;8.71;100.00;100092.72;5087732;28;20364;-78
2023/10/31 06:58:44;;;;;;;;;;;;;;;8.71;100.00;100088.38;5082315;28;19920;-77
2023/10/31 07:01:10;;;;;;;;;;;;;;;8.70;100.00;100086.69;5078152;28;19924;-77
2023/10/31 07:03:36;;;;;;;;;;;;;;;8.65;100.00;100091.13;5083785;28;19917;-77
2023/10/31 07:06:01;;;;;;;;;;;;;;;8.58;100.00;100090.47;5091362;28;19924;-77
2023/10/31 07:08:26;;;;;;;;;;;;;;;8.56;100.00;100096.56;5085113;28;19927;-77
2023/10/31 07:10:51;;;;;;;;;;;;;;;8.58;100.00;100097.41;5091506;28;19917;-77
2023/10/31 07:13:17;;;;;;;;;;;;;;;8.59;100.00;100099.94;5083491;28;19927;-77
2023/10/31 07:15:42;;;;;;;;;;;;;;;8.60;100.00;100095.59;5085365;28;20394;-78
2023/10/31 07:18:08;;;;;;;;;;;;;;;8.60;100.00;100104.28;5084367;28;19920;-77
2023/10/31 07:20:33;;;;;;;;;;;;;;;8.60;100.00;100106.88;5086568;28;19955;-78
2023/10/31 07:22:58;;;;;;;;;;;;;;;8.58;100.00;100108.63;5086173;28;20431;-78
2023/10/31 07:25:23;;;;;;;;;;;;;;;8.54;100.00;100116.56;5085100;28;19925;-78
2023/10/31 07:27:49;;;;;;;;;;;;;;;8.50;100.00;100117.53;5085795;28;19923;-77
2023/10/31 07:30:14;;;;;;;;;;;;;;;8.51;100.00;100120.09;5074460;28;19964;-77
2023/10/31 07:32:39;;;;;;;;;;;;;;;8.54;100.00;100122.63;5085294;28;19926;-77
2023/10/31 07:35:04;;;;;;;;;;;;;;;8.58;100.00;100128.59;5077795;28;20287;-77
2023/10/31 07:37:30;;;;;;;;;;;;;;;8.57;100.00;100125.13;5078832;28;19940;-77
2023/10/31 07:39:55;;;;;;;;;;;;;;;8.58;100.00;100120.78;5081547;28;19974;-77
2023/10/31 07:42:20;;;;;;;;;;;;;;;8.55;100.00;100124.31;5087288;28;19916;-77
2023/10/31 07:44:45;;;;;;;;;;;;;;;8.52;100.00;100123.53;5079297;28;19956;-77
2023/10/31 07:47:10;;;;;;;;;;;;;;;8.52;100.00;100132.19;5081759;28;19920;-77
2023/10/31 07:49:36;;;;;;;;;;;;;;;8.58;100.00;100128.59;5084094;28;19916;-77
2023/10/31 07:52:01;;;;;;;;;;;;;;;8.66;100.00;100129.22;5080113;28;20410;-77
2023/10/31 07:54:26;;;;;;;;;;;;;;;8.70;100.00;100120.47;5081794;28;19964;-77
2023/10/31 07:56:52;;;;;;;;;;;;;;;8.75;100.00;100120.31;5081592;28;19970;-77
2023/10/31 07:59:17;;;;;;;;;;;;;;;8.78;100.00;100123.69;5083560;28;19920;-77
2023/10/31 08:01:42;;;;;;;;;;;;;;;8.81;100.00;100127.97;5074429;28;20026;-76
2023/10/31 08:04:07;;;;;;;;;;;;;;;8.82;100.00;100137.44;5071096;28;19920;-78
2023/10/31 08:06:33;;;;;;;;;;;;;;;8.91;100.00;100142.41;5083699;28;19979;-78
2023/10/31 08:08:58;;;;;;;;;;;;;;;8.97;100.00;100142.22;5078719;28;20267;-78
2023/10/31 08:11:24;;;;;;;;;;;;;;;9.06;100.00;100144.59;5087111;28;19931;-78
2023/10/31 08:13:49;;;;;;;;;;;;;;;9.11;100.00;100140.09;5074282;28;19956;-78
2023/10/31 08:16:19;;;;;;;;;;;;;;;9.25;100.00;100151.84;5088805;28;19920;-78
2023/10/31 08:18:44;;;;;;;;;;;;;;;9.28;100.00;100142.19;5075045;28;19920;-78
2023/10/31 08:21:11;;;;;;;;;;;;;;;9.36;100.00;100149.78;5077521;28;19917;-77
2023/10/31 08:23:36;;;;;;;;;;;;;;;9.44;100.00;100146.94;5071938;28;19929;-78
2023/10/31 08:26:01;;;;;;;;;;;;;;;9.54;100.00;100151.81;5071282;28;19997;-78
2023/10/31 08:28:26;;;;;;;;;;;;;;;9.64;100.00;100142.00;5085042;28;20016;-79
2023/10/31 08:30:52;;;;;;;;;;;;;;;9.61;100.00;100155.97;5073804;28;19923;-77
2023/10/31 08:33:19;;;;;;;;;;;;;;;9.56;100.00;100151.78;5074058;28;20285;-77
2023/10/31 08:35:44;;;;;;;;;;;;;;;9.66;100.00;100157.56;5074634;28;20431;-78
2023/10/31 08:38:09;;;;;;;;;;;;;;;9.64;100.00;100151.56;5076961;28;19928;-78
2023/10/31 08:40:34;;;;;;;;;;;;;;;9.63;100.00;100157.66;5085177;28;19935;-78
2023/10/31 08:43:00;;;;;;;;;;;;;;;9.66;100.00;100154.97;5073336;28;19952;-77
2023/10/31 08:45:25;;;;;;;;;;;;;;;9.74;100.00;100166.00;5073595;28;19927;-77
2023/10/31 08:47:51;;;;;;;;;;;;;;;9.73;100.00;100162.53;5078362;28;19944;-77
2023/10/31 08:50:16;;;;;;;;;;;;;;;9.72;100.00;100160.84;5088600;28;20310;-77
2023/10/31 08:52:41;;;;;;;;;;;;;;;9.69;100.00;100180.91;5082143;28;19924;-77
2023/10/31 08:55:07;;;;;;;;;;;;;;;9.61;100.00;100187.19;5074758;28;20368;-78
2023/10/31 08:57:33;;;;;;;;;;;;;;;9.69;100.00;100196.53;5085175;28;20381;-77
2023/10/31 08:59:58;;;;;;;;;;;;;;;9.81;100.00;100199.63;5077727;28;19928;-77
2023/10/31 09:02:24;;;;;;;;;;;;;;;9.90;100.00;100193.25;5079411;28;19924;-78
2023/10/31 09:04:49;;;;;;;;;;;;;;;9.85;100.00;100197.75;5077798;28;20372;-77
2023/10/31 09:07:14;;;;;;;;;;;;;;;9.78;100.00;100210.13;5073457;28;19939;-78
2023/10/31 09:09:39;;;;;;;;;;;;;;;9.80;100.00;100207.44;5074701;28;20038;-77
2023/10/31 09:12:05;;;;;;;;;;;;;;;9.74;100.00;100218.88;5073795;28;19924;-82
2023/10/31 09:14:30;;;;;;;;;;;;;;;9.66;100.00;100212.22;5063090;28;21565;-77
2023/10/31 09:16:56;;;;;;;;;;;;;;;9.71;100.00;100215.53;5074229;28;20104;-77
2023/10/31 09:19:21;;;;;;;;;;;;;;;9.78;100.00;100222.28;5071188;28;20456;-78
2023/10/31 09:21:46;;;;;;;;;;;;;;;9.81;100.00;100224.78;5081884;28;19924;-77
2023/10/31 09:24:11;;;;;;;;;;;;;;;9.78;100.00;100224.88;5077863;28;20011;-77
2023/10/31 09:26:37;;;;;;;;;;;;;;;9.63;100.00;100236.59;5080924;28;20011;-77
2023/10/31 09:29:03;;;;;;;;;;;;;;;9.55;100.00;100238.56;5081093;28;19920;-77
2023/10/31 09:31:28;;;;;;;;;;;;;;;9.67;100.00;100238.19;5070635;28;19950;-77
2023/10/31 09:33:54;;;;;;;;;;;;;;;9.69;100.00;100256.38;5083926;28;19920;-77
2023/10/31 09:36:19;;;;;;;;;;;;;;;9.78;100.00;100256.13;5076698;28;20365;-77
2023/10/31 09:38:44;;;;;;;;;;;;;;;9.96;100.00;100260.75;5084194;28;19927;-78
2023/10/31 09:41:10;;;;;;;;;;;;;;;9.98;100.00;100264.19;5082889;28;19944;-77
2023/10/31 09:43:35;;;;;;;;;;;;;;;9.87;100.00;100275.81;5072766;28;19920;-77
2023/10/31 09:46:02;;;;;;;;;;;;;;;9.78;100.00;100270.00;5070920;28;20050;-78
2023/10/31 09:48:27;;;;;;;;;;;;;;;9.80;100.00;100277.75;5077860;28;19934;-77
2023/10/31 09:50:53;;;;;;;;;;;;;;;9.88;100.00;100270.56;5089617;28;20036;-77
2023/10/31 09:53:19;;;;;;;;;;;;;;;9.94;100.00;100272.13;5078810;28;19921;-77
2023/10/31 09:55:44;;;;;;;;;;;;;;;9.96;100.00;100273.78;5080927;28;19921;-77
2023/10/31 09:58:10;;;;;;;;;;;;;;;10.05;100.00;100270.06;5085521;28;19927;-77
2023/10/31 10:00:37;;;;;;;;;;;;;;;10.14;100.00;100275.00;5079200;28;19921;-77
2023/10/31 10:03:03;;;;;;;;;;;;;;;10.01;100.00;100279.72;5080444;28;19928;-77
2023/10/31 10:05:31;;;;;;;;;;;;;;;10.09;100.00;100276.88;5079884;28;19966;-76
2023/10/31 10:07:56;;;;;;;;;;;;;;;10.43;100.00;100278.44;5086395;28;19935;-77
2023/10/31 10:10:21;;;;;;;;;;;;;;;10.57;100.00;100285.84;5087509;28;19924;-77
2023/10/31 10:12:46;;;;;;;;;;;;;;;10.55;100.00;100285.88;5081529;28;19920;-77
2023/10/31 10:15:12;;;;;;;;;;;;;;;10.50;100.00;100287.81;5087641;28;19947;-77
2023/10/31 10:17:39;;;;;;;;;;;;;;;10.41;100.00;100303.72;5087239;28;19922;-77
2023/10/31 10:20:06;;;;;;;;;;;;;;;10.28;100.00;100298.03;5081448;28;19920;-77
2023/10/31 10:22:31;;;;;;;;;;;;;;;10.15;100.00;100301.88;5086821;28;19927;-77
2023/10/31 10:24:57;;;;;;;;;;;;;;;10.16;100.00;100308.78;5079755;28;19916;-77
2023/10/31 10:27:22;;;;;;;;;;;;;;;10.30;100.00;100317.09;5082991;28;19920;-80
2023/10/31 10:29:47;;;;;;;;;;;;;;;10.39;100.00;100313.34;5084221;28;20278;-78
2023/10/31 10:32:13;;;;;;;;;;;;;;;10.47;100.00;100313.97;5083224;28;20389;-77
2023/10/31 10:34:38;;;;;;;;;;;;;;;10.45;100.00;100319.22;5090862;28;19925;-78
2023/10/31 10:37:04;;;;;;;;;;;;;;;10.49;100.00;100322.56;5067497;28;19917;-78
2023/10/31 10:39:32;;;;;;;;;;;;;;;10.49;100.00;100320.81;5084630;28;20368;-77
2023/10/31 10:41:59;;;;;;;;;;;;;;;10.55;100.00;100331.03;5087899;28;19920;-77
2023/10/31 10:44:32;;;;;;;;;;;;;;;10.72;100.00;100324.44;5085112;28;19969;-77
2023/10/31 10:46:57;;;;;;;;;;;;;;;10.78;100.00;100335.53;5086963;28;19947;-78
2023/10/31 10:49:24;;;;;;;;;;;;;;;10.69;100.00;100337.56;5078850;28;19967;-77
2023/10/31 10:51:56;;;;;;;;;;;;;;;10.58;100.00;100347.50;5075704;28;20057;-77
2023/10/31 10:54:27;;;;;;;;;;;;;;;10.49;100.00;100339.06;5087069;28;19965;-77
2023/10/31 10:56:58;;;;;;;;;;;;;;;10.59;100.00;100341.38;5086985;28;19920;-78
2023/10/31 10:59:41;;;;;;;;;;;;;;;10.63;100.00;100346.47;5086207;28;19927;-77
2023/10/31 11:02:07;;;;;;;;;;;;;;;10.59;100.00;100339.63;5086360;28;19920;-77
2023/10/31 11:04:33;;;;;;;;;;;;;;;10.52;100.00;100341.56;5085523;28;20256;-77
2023/10/31 11:06:58;;;;;;;;;;;;;;;10.45;100.00;100339.22;5084896;28;19921;-78
2023/10/31 11:09:24;;;;;;;;;;;;;;;10.42;100.00;100334.94;5087006;28;19920;-78
2023/10/31 11:11:50;;;;;;;;;;;;;;;10.41;100.00;100337.59;5085738;28;19927;-78
2023/10/31 11:14:16;;;;;;;;;;;;;;;10.42;100.00;100337.53;5085945;28;20276;-78
2023/10/31 11:16:47;;;;;;;;;;;;;;;10.47;100.00;100340.03;5084622;28;19938;-78
2023/10/31 11:19:13;;;;;;;;;;;;;;;10.64;100.00;100342.09;5082061;28;19928;-78
2023/10/31 11:21:52;;;;;;;;;;;;;;;10.69;100.00;100346.28;5077671;28;19921;-78
2023/10/31 11:24:17;;;;;;;;;;;;;;;10.69;100.00;100348.88;5086065;28;19928;-77
2023/10/31 11:26:50;;;;;;;;;;;;;;;10.80;100.00;100348.53;5081612;28;19927;-78
2023/10/31 11:29:17;;;;;;;;;;;;;;;10.83;100.00;100347.59;5078251;28;19967;-79
2023/10/31 11:31:42;;;;;;;;;;;;;;;10.78;100.00;100355.53;5085640;28;19921;-77
2023/10/31 11:34:07;;;;;;;;;;;;;;;10.74;100.00;100351.31;5082980;28;19974;-78
2023/10/31 11:36:33;;;;;;;;;;;;;;;10.80;100.00;100345.91;5082195;28;20410;-77
2023/10/31 11:39:15;;;;;;;;;;;;;;;10.95;100.00;100345.44;5077669;28;19926;-77
2023/10/31 11:41:40;;;;;;;;;;;;;;;11.21;100.00;100341.91;5077163;28;19965;-77
2023/10/31 11:44:05;;;;;;;;;;;;;;;11.37;100.00;100339.66;5083098;28;19920;-77
2023/10/31 11:46:31;;;;;;;;;;;;;;;11.38;100.00;100333.53;5081635;28;20392;-77
2023/10/31 11:48:56;;;;;;;;;;;;;;;11.44;100.00;100327.22;5073445;28;19927;-77
2023/10/31 11:51:22;;;;;;;;;;;;;;;11.62;100.00;100328.34;5085602;28;19964;-77
2023/10/31 11:53:51;;;;;;;;;;;;;;;11.85;100.00;100333.63;5085586;28;19955;-77
2023/10/31 11:56:16;;;;;;;;;;;;;;;12.12;100.00;100334.34;5086344;28;19920;-77
2023/10/31 11:58:41;;;;;;;;;;;;;;;12.39;100.00;100329.84;5082769;28;19928;-77
2023/10/31 12:01:07;;;;;;;;;;;;;;;12.60;100.00;100329.91;5085988;28;19942;-78
2023/10/31 12:03:42;;;;;;;;;;;;;;;12.65;100.00;100322.69;5069676;28;20215;-78
2023/10/31 12:06:10;;;;;;;;;;;;;;;12.59;100.00;100322.97;5069589;28;19924;-78
2023/10/31 12:08:37;;;;;;;;;;;;;;;12.58;100.00;100329.09;5079438;28;20387;-78
2023/10/31 12:11:03;;;;;;;;;;;;;;;12.56;100.00;100323.09;5088709;28;19927;-78
2023/10/31 12:13:29;;;;;;;;;;;;;;;12.55;100.00;100326.59;5077291;28;20049;-75
2023/10/31 12:15:54;;;;;;;;;;;;;;;12.73;100.00;100319.78;5087696;28;20427;-78
2023/10/31 12:18:19;;;;;;;;;;;;;;;12.77;100.00;100321.38;5077257;28;19920;-78
2023/10/31 12:20:48;;;;;;;;;;;;;;;12.76;100.00;100325.75;5065242;28;19931;-78
2023/10/31 12:23:14;;;;;;;;;;;;;;;12.70;100.00;100328.59;5083229;28;19960;-78
2023/10/31 12:25:52;;;;;;;;;;;;;;;12.61;100.00;100329.81;5081294;28;20501;-78
2023/10/31 12:28:21;;;;;;;;;;;;;;;12.55;100.00;100331.81;5088062;28;19939;-78
2023/10/31 12:30:47;;;;;;;;;;;;;;;12.39;100.00;100327.22;5071583;28;19935;-78
2023/10/31 12:33:12;;;;;;;;;;;;;;;12.23;100.00;100328.72;5075676;28;19924;-78